sensor_id;sensor_type;location;lat;lon;timestamp;pressure;altitude;pressure_sealevel;temperature;humidity
76331;BME280;65148;51.912;15.570;2023-04-03T00:00:50;102685.39;;;1.52;71.89
76331;BME280;65148;51.912;15.570;2023-04-03T00:15:51;102699.20;;;1.49;71.75
76331;BME280;65148;51.912;15.570;2023-04-03T00:30:52;102698.28;;;1.33;73.56
76331;BME280;65148;51.912;15.570;2023-04-03T00:45:57;102691.64;;;1.21;74.01
76331;BME280;65148;51.912;15.570;2023-04-03T01:01:21;102704.21;;;0.90;77.92
76331;BME280;65148;51.912;15.570;2023-04-03T01:16:24;102715.43;;;0.93;77.05
76331;BME280;65148;51.912;15.570;2023-04-03T01:31:29;102711.96;;;0.85;78.03
76331;BME280;65148;51.912;15.570;2023-04-03T01:46:58;102723.09;;;0.57;79.61
76331;BME280;65148;51.912;15.570;2023-04-03T02:01:59;102730.84;;;0.52;80.76
76331;BME280;65148;51.912;15.570;2023-04-03T02:17:01;102734.98;;;0.55;81.28
76331;BME280;65148;51.912;15.570;2023-04-03T02:32:36;102752.30;;;0.28;82.62
76331;BME280;65148;51.912;15.570;2023-04-03T02:47:37;102758.80;;;0.33;82.42
76331;BME280;65148;51.912;15.570;2023-04-03T03:02:38;102766.20;;;0.31;82.48
76331;BME280;65148;51.912;15.570;2023-04-03T03:17:40;102765.04;;;0.18;83.41
76331;BME280;65148;51.912;15.570;2023-04-03T03:33:01;102774.24;;;-0.01;84.39
76331;BME280;65148;51.912;15.570;2023-04-03T03:48:03;102786.28;;;0.03;84.38
76331;BME280;65148;51.912;15.570;2023-04-03T04:03:04;102785.28;;;-0.12;85.78
76331;BME280;65148;51.912;15.570;2023-04-03T04:18:06;102784.70;;;-0.40;87.17
76331;BME280;65148;51.912;15.570;2023-04-03T04:33:28;102806.58;;;-0.53;88.75
76331;BME280;65148;51.912;15.570;2023-04-03T04:48:30;102823.00;;;-0.48;89.09
76331;BME280;65148;51.912;15.570;2023-04-03T05:03:31;102828.88;;;-0.36;88.71
76331;BME280;65148;51.912;15.570;2023-04-03T05:18:32;102828.59;;;-0.25;88.34
76331;BME280;65148;51.912;15.570;2023-04-03T05:33:54;102825.39;;;-0.28;88.66
76331;BME280;65148;51.912;15.570;2023-04-03T05:48:55;102841.86;;;0.17;86.53
76331;BME280;65148;51.912;15.570;2023-04-03T06:03:56;102854.06;;;0.44;85.83
76331;BME280;65148;51.912;15.570;2023-04-03T06:18:59;102861.63;;;0.65;84.62
76331;BME280;65148;51.912;15.570;2023-04-03T06:34:18;102872.45;;;1.04;81.26
76331;BME280;65148;51.912;15.570;2023-04-03T06:49:21;102894.10;;;1.50;79.96
76331;BME280;65148;51.912;15.570;2023-04-03T07:04:22;102903.19;;;1.79;82.04
76331;BME280;65148;51.912;15.570;2023-04-03T07:19:23;102929.13;;;2.26;76.87
76331;BME280;65148;51.912;15.570;2023-04-03T07:34:44;102929.12;;;2.49;77.87
76331;BME280;65148;51.912;15.570;2023-04-03T07:49:46;102939.22;;;3.07;75.58
76331;BME280;65148;51.912;15.570;2023-04-03T08:04:48;102932.10;;;3.58;73.66
76331;BME280;65148;51.912;15.570;2023-04-03T08:19:49;102947.11;;;4.33;68.41
76331;BME280;65148;51.912;15.570;2023-04-03T08:35:05;102927.72;;;3.87;66.77
76331;BME280;65148;51.912;15.570;2023-04-03T08:50:15;102943.49;;;3.90;63.75
76331;BME280;65148;51.912;15.570;2023-04-03T09:05:20;102937.48;;;4.66;62.81
76331;BME280;65148;51.912;15.570;2023-04-03T09:36:02;102940.45;;;4.71;54.18
76331;BME280;65148;51.912;15.570;2023-04-03T09:51:04;102940.59;;;5.12;52.76
76331;BME280;65148;51.912;15.570;2023-04-03T10:06:32;102943.71;;;4.67;53.92
76331;BME280;65148;51.912;15.570;2023-04-03T11:07:40;102908.62;;;6.79;46.76
76331;BME280;65148;51.912;15.570;2023-04-03T11:22:48;102896.70;;;6.27;48.23
76331;BME280;65148;51.912;15.570;2023-04-03T11:38:05;102877.15;;;7.75;46.10
76331;BME280;65148;51.912;15.570;2023-04-03T12:08:29;102855.52;;;8.88;45.29
76331;BME280;65148;51.912;15.570;2023-04-03T13:09:36;102836.74;;;7.67;45.36
76331;BME280;65148;51.912;15.570;2023-04-03T13:24:38;102835.96;;;7.47;43.75
76331;BME280;65148;51.912;15.570;2023-04-03T13:39:40;102823.28;;;7.41;45.07
76331;BME280;65148;51.912;15.570;2023-04-03T14:07:54;102808.34;;;8.08;42.27
76331;BME280;65148;51.912;15.570;2023-04-03T14:22:56;102807.24;;;7.39;43.73
76331;BME280;65148;51.912;15.570;2023-04-03T14:37:58;102805.31;;;6.82;46.00
76331;BME280;65148;51.912;15.570;2023-04-03T14:53:18;102787.17;;;7.02;43.46
76331;BME280;65148;51.912;15.570;2023-04-03T15:08:27;102790.09;;;7.52;43.98
76331;BME280;65148;51.912;15.570;2023-04-03T15:23:32;102780.48;;;7.05;43.67
76331;BME280;65148;51.912;15.570;2023-04-03T15:38:56;102773.35;;;7.23;43.55
76331;BME280;65148;51.912;15.570;2023-04-03T15:53:57;102769.49;;;6.86;43.37
76331;BME280;65148;51.912;15.570;2023-04-03T16:08:58;102771.63;;;6.51;46.14
76331;BME280;65148;51.912;15.570;2023-04-03T16:24:02;102777.06;;;6.45;47.30
76331;BME280;65148;51.912;15.570;2023-04-03T16:39:21;102776.21;;;6.18;45.72
76331;BME280;65148;51.912;15.570;2023-04-03T16:54:22;102777.05;;;6.12;48.53
76331;BME280;65148;51.912;15.570;2023-04-03T17:09:24;102779.34;;;6.02;48.94
76331;BME280;65148;51.912;15.570;2023-04-03T17:24:25;102787.84;;;5.92;49.33
76331;BME280;65148;51.912;15.570;2023-04-03T17:39:47;102806.66;;;5.66;53.09
76331;BME280;65148;51.912;15.570;2023-04-03T17:54:48;102813.28;;;5.57;53.79
76331;BME280;65148;51.912;15.570;2023-04-03T18:09:50;102808.90;;;5.49;54.67
76331;BME280;65148;51.912;15.570;2023-04-03T18:24:52;102815.45;;;5.27;55.11
76331;BME280;65148;51.912;15.570;2023-04-03T18:40:12;102815.19;;;5.15;54.62
76331;BME280;65148;51.912;15.570;2023-04-03T18:55:13;102812.84;;;5.05;55.83
76331;BME280;65148;51.912;15.570;2023-04-03T19:10:18;102822.16;;;5.03;55.47
76331;BME280;65148;51.912;15.570;2023-04-03T19:25:20;102816.48;;;4.91;56.34
76331;BME280;65148;51.912;15.570;2023-04-03T19:40:39;102820.88;;;4.64;56.61
76331;BME280;65148;51.912;15.570;2023-04-03T19:55:45;102822.24;;;4.82;55.63
76331;BME280;65148;51.912;15.570;2023-04-03T20:10:46;102808.70;;;4.75;54.96
76331;BME280;65148;51.912;15.570;2023-04-03T20:25:48;102809.37;;;4.56;58.19
76331;BME280;65148;51.912;15.570;2023-04-03T20:41:04;102805.64;;;4.29;60.80
76331;BME280;65148;51.912;15.570;2023-04-03T20:56:06;102810.72;;;4.17;57.29
76331;BME280;65148;51.912;15.570;2023-04-03T21:26:47;102818.66;;;3.83;59.74
76331;BME280;65148;51.912;15.570;2023-04-03T21:41:49;102818.09;;;3.87;59.76
76331;BME280;65148;51.912;15.570;2023-04-03T21:56:54;102820.77;;;3.66;60.91
76331;BME280;65148;51.912;15.570;2023-04-03T22:11:55;102816.05;;;3.53;61.10
76331;BME280;65148;51.912;15.570;2023-04-03T22:27:11;102814.37;;;3.52;63.89
76331;BME280;65148;51.912;15.570;2023-04-03T22:42:13;102824.24;;;3.45;63.14
76331;BME280;65148;51.912;15.570;2023-04-03T22:57:14;102822.94;;;3.41;62.53
76331;BME280;65148;51.912;15.570;2023-04-03T23:12:16;102821.92;;;3.27;60.54
76331;BME280;65148;51.912;15.570;2023-04-03T23:27:34;102832.62;;;2.91;60.65
76331;BME280;65148;51.912;15.570;2023-04-03T23:42:37;102826.10;;;2.86;59.53
76331;BME280;65148;51.912;15.570;2023-04-03T23:57:40;102841.73;;;2.53;60.84
